Time;durP1;ratioP1;P1;durP2;ratioP2;P2;SDS_P1;SDS_P2;PMS_P1;PMS_P2;Temp;Humidity;BMP_temperature;BMP_pressure;BME280_temperature;BME280_humidity;BME280_pressure;Samples;Min_cycle;Max_cycle;Signal;HPM_P1;HPM_P2
2021/01/19 00:00:12;;;;;;;;;;;;;;;;;;5041940;28;20391;-84
2021/01/19 00:02:39;;;;;;;;;;;;;;;;;;5052441;28;20387;-83
2021/01/19 00:05:05;;;;;;;;;;;;;;;;;;5057110;28;20383;-83
2021/01/19 00:07:31;;;;;;;;;;;;;;;;;;5057345;28;20391;-82
2021/01/19 00:09:58;;;;;;;;;;;;;;;;;;5056953;28;20399;-82
2021/01/19 00:12:24;;;;;;;;;;;;;;;;;;5056896;28;20404;-83
2021/01/19 00:14:51;;;;;;;;;;;;;;;;;;5054439;28;20391;-84
2021/01/19 00:17:17;;;;;;;;;;;;;;;;;;5040818;28;20387;-85
2021/01/19 00:19:43;;;;;;;;;;;;;;;;;;5043932;28;20390;-84
2021/01/19 00:22:10;;;;;;;;;;;;;;;;;;5051469;28;20392;-84
2021/01/19 00:24:36;;;;;;;;;;;;;;;;;;5045161;28;20391;-85
2021/01/19 00:27:03;;;;;;;;;;;;;;;;;;5039783;28;20423;-84
2021/01/19 00:29:29;;;;;;;;;;;;;;;;;;5039535;28;20403;-83
2021/01/19 00:31:55;;;;;;;;;;;;;;;;;;5039347;28;20379;-85
2021/01/19 00:34:22;;;;;;;;;;;;;;;;;;5039436;28;20403;-83
2021/01/19 00:36:48;;;;;;;;;;;;;;;;;;5039652;28;20852;-86
2021/01/19 00:39:16;;;;;;;;;;;;;;;;;;5039009;28;20433;-83
2021/01/19 00:41:42;;;;;;;;;;;;;;;;;;5038864;28;20368;-83
2021/01/19 00:44:08;;;;;;;;;;;;;;;;;;5038851;28;20410;-83
2021/01/19 00:46:35;;;;;;;;;;;;;;;;;;5039375;28;20387;-84
2021/01/19 00:49:01;;;;;;;;;;;;;;;;;;5039347;28;20395;-83
2021/01/19 00:51:28;;;;;;;;;;;;;;;;;;5039513;28;20395;-85
2021/01/19 00:53:54;;;;;;;;;;;;;;;;;;5040340;28;20442;-84
2021/01/19 00:56:20;;;;;;;;;;;;;;;;;;5038716;28;20906;-84
2021/01/19 00:58:47;;;;;;;;;;;;;;;;;;5038981;28;20403;-85
2021/01/19 01:01:13;;;;;;;;;;;;;;;;;;5038665;28;20386;-85
2021/01/19 01:03:39;;;;;;;;;;;;;;;;;;5038832;28;20403;-85
2021/01/19 01:06:06;;;;;;;;;;;;;;;;;;5038921;28;20384;-84
2021/01/19 01:08:32;;;;;;;;;;;;;;;;;;5038636;28;20395;-83
2021/01/19 01:10:59;;;;;;;;;;;;;;;;;;5038544;28;20407;-84
2021/01/19 01:13:25;;;;;;;;;;;;;;;;;;5039153;28;20419;-85
2021/01/19 01:15:51;;;;;;;;;;;;;;;;;;5039078;28;20442;-85
2021/01/19 01:18:18;;;;;;;;;;;;;;;;;;5039015;28;20485;-83
2021/01/19 01:20:44;;;;;;;;;;;;;;;;;;5039226;28;20390;-85
2021/01/19 01:23:13;;;;;;;;;;;;;;;;;;5039318;28;20410;-84
2021/01/19 01:25:39;;;;;;;;;;;;;;;;;;5039027;28;20850;-84
2021/01/19 01:28:06;;;;;;;;;;;;;;;;;;5038777;28;20392;-85
2021/01/19 01:30:32;;;;;;;;;;;;;;;;;;5037964;28;20414;-85
2021/01/19 01:32:58;;;;;;;;;;;;;;;;;;5038522;28;20407;-86
2021/01/19 01:35:25;;;;;;;;;;;;;;;;;;5039090;28;20399;-85
2021/01/19 01:37:51;;;;;;;;;;;;;;;;;;5039805;28;20390;-84
2021/01/19 01:40:18;;;;;;;;;;;;;;;;;;5044685;28;20387;-84
2021/01/19 01:42:44;;;;;;;;;;;;;;;;;;5049540;28;20403;-84
2021/01/19 01:45:10;;;;;;;;;;;;;;;;;;5043863;28;20387;-84
2021/01/19 01:47:37;;;;;;;;;;;;;;;;;;5038994;28;20379;-84
2021/01/19 01:50:03;;;;;;;;;;;;;;;;;;5039125;28;20775;-85
2021/01/19 01:52:30;;;;;;;;;;;;;;;;;;5043720;28;20411;-84
2021/01/19 01:54:56;;;;;;;;;;;;;;;;;;5043586;28;20469;-85
2021/01/19 01:57:23;;;;;;;;;;;;;;;;;;5052302;28;20383;-84
2021/01/19 01:59:49;;;;;;;;;;;;;;;;;;5055673;28;20770;-84
2021/01/19 02:02:15;;;;;;;;;;;;;;;;;;5042789;28;20395;-85
2021/01/19 02:04:42;;;;;;;;;;;;;;;;;;5043073;28;20733;-85
2021/01/19 02:07:08;;;;;;;;;;;;;;;;;;5045367;28;20383;-84
2021/01/19 02:09:35;;;;;;;;;;;;;;;;;;5042173;28;20410;-84
2021/01/19 02:12:01;;;;;;;;;;;;;;;;;;5042507;28;20394;-85
2021/01/19 02:14:27;;;;;;;;;;;;;;;;;;5042437;28;20391;-84
2021/01/19 02:16:54;;;;;;;;;;;;;;;;;;5041678;28;20383;-84
2021/01/19 02:19:20;;;;;;;;;;;;;;;;;;5042099;28;20397;-83
2021/01/19 02:21:46;;;;;;;;;;;;;;;;;;5041774;28;20391;-84
2021/01/19 02:24:13;;;;;;;;;;;;;;;;;;5041897;28;20506;-84
2021/01/19 02:26:39;;;;;;;;;;;;;;;;;;5042168;28;20395;-84
2021/01/19 02:29:06;;;;;;;;;;;;;;;;;;5043102;28;20394;-84
2021/01/19 02:31:32;;;;;;;;;;;;;;;;;;5045142;28;20395;-84
2021/01/19 02:33:58;;;;;;;;;;;;;;;;;;5061397;28;20403;-84
2021/01/19 02:36:25;;;;;;;;;;;;;;;;;;5061347;28;20391;-83
2021/01/19 02:38:51;;;;;;;;;;;;;;;;;;5048415;28;20391;-84
2021/01/19 02:41:17;;;;;;;;;;;;;;;;;;5041690;28;20379;-84
2021/01/19 02:43:44;;;;;;;;;;;;;;;;;;5042372;28;20411;-83
2021/01/19 02:46:10;;;;;;;;;;;;;;;;;;5042186;28;20388;-84
2021/01/19 02:48:37;;;;;;;;;;;;;;;;;;5041740;28;20388;-84
2021/01/19 02:51:03;;;;;;;;;;;;;;;;;;5042374;28;20414;-84
2021/01/19 02:53:29;;;;;;;;;;;;;;;;;;5041273;28;20415;-84
2021/01/19 02:55:56;;;;;;;;;;;;;;;;;;5087017;23;20412;-80
2021/01/19 02:58:22;;;;;;;;;;;;;;;;;;5056469;28;20397;-80
2021/01/19 03:00:48;;;;;;;;;;;;;;;;;;5049499;28;20383;-83
2021/01/19 03:03:15;;;;;;;;;;;;;;;;;;5040698;28;20387;-81
2021/01/19 03:05:41;;;;;;;;;;;;;;;;;;5046016;28;20405;-80
2021/01/19 03:08:07;;;;;;;;;;;;;;;;;;5048972;28;20747;-81
2021/01/19 03:10:34;;;;;;;;;;;;;;;;;;5043600;28;20403;-81
2021/01/19 03:13:00;;;;;;;;;;;;;;;;;;5056709;28;20372;-82
2021/01/19 03:15:27;;;;;;;;;;;;;;;;;;5072859;28;20399;-83
2021/01/19 03:17:53;;;;;;;;;;;;;;;;;;5071728;28;20367;-83
2021/01/19 03:20:19;;;;;;;;;;;;;;;;;;5063609;28;20392;-82
2021/01/19 03:22:46;;;;;;;;;;;;;;;;;;5070945;28;20438;-82
2021/01/19 03:25:12;;;;;;;;;;;;;;;;;;5060578;28;20412;-85
2021/01/19 03:27:38;;;;;;;;;;;;;;;;;;5055202;28;20387;-83
2021/01/19 03:30:05;;;;;;;;;;;;;;;;;;5057300;28;20403;-83
2021/01/19 03:32:31;;;;;;;;;;;;;;;;;;5043724;28;20387;-84
2021/01/19 03:34:58;;;;;;;;;;;;;;;;;;5054078;28;20415;-82
2021/01/19 03:37:24;;;;;;;;;;;;;;;;;;5048023;28;20391;-82
2021/01/19 03:39:50;;;;;;;;;;;;;;;;;;5056542;28;20385;-83
2021/01/19 03:42:17;;;;;;;;;;;;;;;;;;5052006;28;20380;-84
2021/01/19 03:44:44;;;;;;;;;;;;;;;;;;5055865;28;20385;-82
2021/01/19 03:47:10;;;;;;;;;;;;;;;;;;5052399;28;20385;-83
2021/01/19 03:49:37;;;;;;;;;;;;;;;;;;5042801;28;20834;-82
2021/01/19 03:52:03;;;;;;;;;;;;;;;;;;5058312;28;20384;-82
2021/01/19 03:54:29;;;;;;;;;;;;;;;;;;5060335;28;20384;-83
2021/01/19 03:56:56;;;;;;;;;;;;;;;;;;5052959;28;20826;-84
2021/01/19 03:59:22;;;;;;;;;;;;;;;;;;5052003;28;20384;-82
2021/01/19 04:01:49;;;;;;;;;;;;;;;;;;5050722;28;20385;-81
2021/01/19 04:04:15;;;;;;;;;;;;;;;;;;5051080;28;20415;-82
2021/01/19 04:06:42;;;;;;;;;;;;;;;;;;5046027;28;20403;-82
2021/01/19 04:09:08;;;;;;;;;;;;;;;;;;5047449;28;20914;-83
2021/01/19 04:11:34;;;;;;;;;;;;;;;;;;5054560;28;20403;-81
2021/01/19 04:14:01;;;;;;;;;;;;;;;;;;5054237;28;20419;-84
2021/01/19 04:16:27;;;;;;;;;;;;;;;;;;5061783;28;20416;-82
2021/01/19 04:18:53;;;;;;;;;;;;;;;;;;5055545;28;20387;-83
2021/01/19 04:21:20;;;;;;;;;;;;;;;;;;5048676;28;20430;-84
2021/01/19 04:23:46;;;;;;;;;;;;;;;;;;5040243;28;20383;-82
2021/01/19 04:26:13;;;;;;;;;;;;;;;;;;5044598;28;20876;-83
2021/01/19 04:28:39;;;;;;;;;;;;;;;;;;5054184;28;20380;-83
2021/01/19 04:31:05;;;;;;;;;;;;;;;;;;5055269;28;20400;-82
2021/01/19 04:33:32;;;;;;;;;;;;;;;;;;5048829;28;20772;-82
2021/01/19 04:35:58;;;;;;;;;;;;;;;;;;5039582;28;20414;-84
2021/01/19 04:38:24;;;;;;;;;;;;;;;;;;5050529;28;20396;-82
2021/01/19 04:40:51;;;;;;;;;;;;;;;;;;5049222;28;20756;-82
2021/01/19 04:43:17;;;;;;;;;;;;;;;;;;5051856;28;20399;-82
2021/01/19 04:45:44;;;;;;;;;;;;;;;;;;5043690;28;20437;-81
2021/01/19 04:48:10;;;;;;;;;;;;;;;;;;5053916;28;20479;-82
2021/01/19 04:50:37;;;;;;;;;;;;;;;;;;5052521;28;20401;-84
2021/01/19 04:53:03;;;;;;;;;;;;;;;;;;5051983;28;20438;-81
2021/01/19 04:55:30;;;;;;;;;;;;;;;;;;5047700;28;20418;-84
2021/01/19 04:57:56;;;;;;;;;;;;;;;;;;5054886;28;20752;-81
2021/01/19 05:00:22;;;;;;;;;;;;;;;;;;5042872;28;20377;-83
2021/01/19 05:02:49;;;;;;;;;;;;;;;;;;5050344;28;20761;-82
2021/01/19 05:05:15;;;;;;;;;;;;;;;;;;5054575;28;20461;-81
2021/01/19 05:07:41;;;;;;;;;;;;;;;;;;5060989;28;20387;-82
2021/01/19 05:12:52;;;;;;;;;;;;;;;;;;5052132;28;20364;-83
2021/01/19 05:15:19;;;;;;;;;;;;;;;;;;5047370;28;20423;-83
2021/01/19 05:17:47;;;;;;;;;;;;;;;;;;5044685;28;20395;-83
2021/01/19 05:20:13;;;;;;;;;;;;;;;;;;5050049;28;20407;-81
2021/01/19 05:22:40;;;;;;;;;;;;;;;;;;5040327;28;20395;-81
2021/01/19 05:25:07;;;;;;;;;;;;;;;;;;5038600;28;20757;-82
2021/01/19 05:27:33;;;;;;;;;;;;;;;;;;5055041;28;20380;-81
2021/01/19 05:30:00;;;;;;;;;;;;;;;;;;5049025;28;20395;-81
2021/01/19 05:32:26;;;;;;;;;;;;;;;;;;5057210;28;20380;-83
2021/01/19 05:34:52;;;;;;;;;;;;;;;;;;5048488;28;20853;-81
2021/01/19 05:37:19;;;;;;;;;;;;;;;;;;5052381;28;20383;-84
2021/01/19 05:39:45;;;;;;;;;;;;;;;;;;5049740;28;20386;-85
2021/01/19 05:42:12;;;;;;;;;;;;;;;;;;5046448;28;20379;-81
2021/01/19 05:44:38;;;;;;;;;;;;;;;;;;5043372;28;20379;-82
2021/01/19 05:47:04;;;;;;;;;;;;;;;;;;5048740;28;20389;-82
2021/01/19 05:49:31;;;;;;;;;;;;;;;;;;5063064;28;20387;-82
2021/01/19 05:51:57;;;;;;;;;;;;;;;;;;5048982;28;20391;-84
2021/01/19 05:54:24;;;;;;;;;;;;;;;;;;5059088;28;20541;-84
2021/01/19 05:56:50;;;;;;;;;;;;;;;;;;5043996;28;20423;-84
2021/01/19 05:59:16;;;;;;;;;;;;;;;;;;5054772;28;20745;-84
2021/01/19 06:01:43;;;;;;;;;;;;;;;;;;5050995;28;20384;-84
2021/01/19 06:04:09;;;;;;;;;;;;;;;;;;5043713;28;20384;-85
2021/01/19 06:06:35;;;;;;;;;;;;;;;;;;5057152;28;20408;-83
2021/01/19 06:09:02;;;;;;;;;;;;;;;;;;5047487;28;20388;-84
2021/01/19 06:11:28;;;;;;;;;;;;;;;;;;5042347;28;20406;-83
2021/01/19 06:13:54;;;;;;;;;;;;;;;;;;5042825;28;20387;-84
2021/01/19 06:16:21;;;;;;;;;;;;;;;;;;5046516;28;20409;-83
2021/01/19 06:18:47;;;;;;;;;;;;;;;;;;5042956;28;20790;-83
2021/01/19 06:21:14;;;;;;;;;;;;;;;;;;5049099;28;20388;-83
2021/01/19 06:23:40;;;;;;;;;;;;;;;;;;5055097;28;20399;-83
2021/01/19 06:34:16;;;;;;;;;;;;;;;;;;5040355;28;20387;-84
2021/01/19 06:36:43;;;;;;;;;;;;;;;;;;5046756;28;20454;-84
2021/01/19 06:39:09;;;;;;;;;;;;;;;;;;5050016;28;20461;-83
2021/01/19 06:41:35;;;;;;;;;;;;;;;;;;5049249;28;20376;-84
2021/01/19 06:44:02;;;;;;;;;;;;;;;;;;5059167;28;20388;-83
2021/01/19 06:46:28;;;;;;;;;;;;;;;;;;5056854;28;20411;-83
2021/01/19 06:48:54;;;;;;;;;;;;;;;;;;5044196;28;20866;-83
2021/01/19 06:51:21;;;;;;;;;;;;;;;;;;5062493;28;20438;-82
2021/01/19 06:53:47;;;;;;;;;;;;;;;;;;5049857;28;20479;-82
2021/01/19 06:56:14;;;;;;;;;;;;;;;;;;5074116;28;20424;-85
2021/01/19 06:58:40;;;;;;;;;;;;;;;;;;5056046;28;20402;-83
2021/01/19 07:01:06;;;;;;;;;;;;;;;;;;5043580;28;20379;-84
2021/01/19 07:03:33;;;;;;;;;;;;;;;;;;5059905;28;20444;-85
2021/01/19 07:05:59;;;;;;;;;;;;;;;;;;5051690;28;20403;-84
2021/01/19 07:08:26;;;;;;;;;;;;;;;;;;5059793;28;20398;-85
2021/01/19 07:10:52;;;;;;;;;;;;;;;;;;5064384;28;20405;-82
2021/01/19 07:13:18;;;;;;;;;;;;;;;;;;5056350;28;20395;-82
2021/01/19 07:15:45;;;;;;;;;;;;;;;;;;5051816;28;20412;-83
2021/01/19 07:18:11;;;;;;;;;;;;;;;;;;5054301;28;20389;-83
2021/01/19 07:20:38;;;;;;;;;;;;;;;;;;5060455;28;20377;-83
2021/01/19 07:23:04;;;;;;;;;;;;;;;;;;5060966;28;20383;-82
2021/01/19 07:25:31;;;;;;;;;;;;;;;;;;5050280;28;20458;-82
2021/01/19 07:27:57;;;;;;;;;;;;;;;;;;5059289;28;20410;-84
2021/01/19 07:30:23;;;;;;;;;;;;;;;;;;5060406;28;20405;-83
2021/01/19 07:32:50;;;;;;;;;;;;;;;;;;5058889;28;20399;-82
2021/01/19 07:35:17;;;;;;;;;;;;;;;;;;5059364;28;20400;-82
2021/01/19 07:37:43;;;;;;;;;;;;;;;;;;5050633;28;20398;-83
2021/01/19 07:40:10;;;;;;;;;;;;;;;;;;5044208;28;20395;-81
2021/01/19 07:42:36;;;;;;;;;;;;;;;;;;5055444;28;20907;-82
2021/01/19 07:45:02;;;;;;;;;;;;;;;;;;5047645;28;20458;-82
2021/01/19 07:47:29;;;;;;;;;;;;;;;;;;5054226;28;20381;-82
2021/01/19 07:49:55;;;;;;;;;;;;;;;;;;5047284;28;20415;-82
2021/01/19 07:52:21;;;;;;;;;;;;;;;;;;5040307;28;20395;-82
2021/01/19 07:54:48;;;;;;;;;;;;;;;;;;5052234;28;20398;-82
2021/01/19 07:57:14;;;;;;;;;;;;;;;;;;5054938;28;20426;-82
2021/01/19 07:59:41;;;;;;;;;;;;;;;;;;5062007;28;20411;-85
2021/01/19 08:02:07;;;;;;;;;;;;;;;;;;5072026;28;20388;-83
2021/01/19 08:04:33;;;;;;;;;;;;;;;;;;5052125;28;20414;-82
2021/01/19 08:43:11;;;;;;;;;;;;;;;;;;4909419;29;20462;-80
2021/01/19 08:45:38;;;;;;;;;;;;;;;;;;4908120;29;20437;-81
2021/01/19 08:48:05;;;;;;;;;;;;;;;;;;4901920;29;20438;-83
2021/01/19 08:50:31;;;;;;;;;;;;;;;;;;4907855;29;20433;-82
2021/01/19 08:52:58;;;;;;;;;;;;;;;;;;4908023;29;20412;-84
2021/01/19 08:55:24;;;;;;;;;;;;;;;;;;4949042;22;20433;-82
2021/01/19 08:57:51;;;;;;;;;;;;;;;;;;5037139;28;20474;-84
2021/01/19 09:00:17;;;;;;;;;;;;;;;;;;5037197;28;20414;-84
2021/01/19 09:02:44;;;;;;;;;;;;;;;;;;5024656;28;20386;-84
2021/01/19 09:05:10;;;;;;;;;;;;;;;;;;5024888;28;20720;-83
2021/01/19 09:07:37;;;;;;;;;;;;;;;;;;5034186;28;20405;-85
2021/01/19 09:10:03;;;;;;;;;;;;;;;;;;5021976;28;20418;-87
2021/01/19 09:12:29;;;;;;;;;;;;;;;;;;5025559;28;20384;-80
2021/01/19 09:14:56;;;;;;;;;;;;;;;;;;5050655;28;20387;-83
2021/01/19 09:17:22;;;;;;;;;;;;;;;;;;5040695;28;20878;-83
2021/01/19 09:19:49;;;;;;;;;;;;;;;;;;5036545;28;20395;-83
2021/01/19 09:22:15;;;;;;;;;;;;;;;;;;5019303;28;20366;-85
2021/01/19 09:24:41;;;;;;;;;;;;;;;;;;5020856;28;20735;-83
2021/01/19 09:27:08;;;;;;;;;;;;;;;;;;5035363;28;20406;-84
2021/01/19 09:29:34;;;;;;;;;;;;;;;;;;5018912;28;20477;-83
2021/01/19 09:32:01;;;;;;;;;;;;;;;;;;5038504;28;20387;-84
2021/01/19 09:34:27;;;;;;;;;;;;;;;;;;5022121;28;20386;-83
2021/01/19 09:36:54;;;;;;;;;;;;;;;;;;5018313;28;20402;-83
2021/01/19 09:39:20;;;;;;;;;;;;;;;;;;5019590;28;20730;-83
2021/01/19 09:41:47;;;;;;;;;;;;;;;;;;5019054;28;20410;-83
2021/01/19 09:44:13;;;;;;;;;;;;;;;;;;5018921;28;20383;-84
2021/01/19 09:46:40;;;;;;;;;;;;;;;;;;5017977;28;20420;-85
2021/01/19 09:49:06;;;;;;;;;;;;;;;;;;5018822;28;20390;-83
2021/01/19 09:51:35;;;;;;;;;;;;;;;;;;5017160;28;20508;-82
2021/01/19 09:54:01;;;;;;;;;;;;;;;;;;5018120;28;20386;-84
2021/01/19 09:56:28;;;;;;;;;;;;;;;;;;5018008;28;20421;-82
2021/01/19 09:58:55;;;;;;;;;;;;;;;;;;5034093;28;20388;-82
2021/01/19 10:01:22;;;;;;;;;;;;;;;;;;5037798;28;20466;-82
2021/01/19 10:03:49;;;;;;;;;;;;;;;;;;5039499;28;20380;-81
2021/01/19 10:06:15;;;;;;;;;;;;;;;;;;5038918;28;20407;-84
2021/01/19 10:08:45;;;;;;;;;;;;;;;;;;5039239;28;20383;-82
2021/01/19 10:11:11;;;;;;;;;;;;;;;;;;5039118;28;20506;-82
2021/01/19 10:13:38;;;;;;;;;;;;;;;;;;5037047;28;20436;-81
2021/01/19 10:16:04;;;;;;;;;;;;;;;;;;5022239;28;20414;-81
2021/01/19 10:18:31;;;;;;;;;;;;;;;;;;5021655;28;20398;-84
2021/01/19 10:20:57;;;;;;;;;;;;;;;;;;5024917;28;20750;-84
2021/01/19 10:23:23;;;;;;;;;;;;;;;;;;5021851;28;20904;-83
2021/01/19 10:25:50;;;;;;;;;;;;;;;;;;5021905;28;20401;-82
2021/01/19 10:28:16;;;;;;;;;;;;;;;;;;5027504;28;20391;-84
2021/01/19 10:30:43;;;;;;;;;;;;;;;;;;5021002;28;20424;-81
2021/01/19 10:33:09;;;;;;;;;;;;;;;;;;5022426;28;20414;-83
2021/01/19 10:35:36;;;;;;;;;;;;;;;;;;5026898;28;20417;-84
2021/01/19 10:38:02;;;;;;;;;;;;;;;;;;5023033;28;20804;-83
2021/01/19 10:40:28;;;;;;;;;;;;;;;;;;5023429;28;20386;-84
2021/01/19 10:42:55;;;;;;;;;;;;;;;;;;5021162;28;20386;-85
2021/01/19 10:45:22;;;;;;;;;;;;;;;;;;5007424;28;20389;-85
2021/01/19 10:47:48;;;;;;;;;;;;;;;;;;5012809;28;20853;-84
2021/01/19 10:50:15;;;;;;;;;;;;;;;;;;5032488;28;20657;-85
2021/01/19 10:52:41;;;;;;;;;;;;;;;;;;5029248;28;20417;-85
2021/01/19 10:55:08;;;;;;;;;;;;;;;;;;5026851;28;20453;-84
2021/01/19 10:57:34;;;;;;;;;;;;;;;;;;5026735;28;20406;-81
2021/01/19 11:00:02;;;;;;;;;;;;;;;;;;5025451;28;20386;-86
2021/01/19 11:02:30;;;;;;;;;;;;;;;;;;5030349;28;20386;-85
2021/01/19 11:04:56;;;;;;;;;;;;;;;;;;5030798;28;20421;-86
2021/01/19 11:07:22;;;;;;;;;;;;;;;;;;5029768;28;20451;-85
2021/01/19 11:09:49;;;;;;;;;;;;;;;;;;5025862;28;20382;-85
2021/01/19 11:12:16;;;;;;;;;;;;;;;;;;5024636;28;20394;-85
2021/01/19 11:14:42;;;;;;;;;;;;;;;;;;5024453;28;20398;-85
2021/01/19 11:17:09;;;;;;;;;;;;;;;;;;5022493;28;20413;-84
2021/01/19 11:19:35;;;;;;;;;;;;;;;;;;5024190;28;20449;-85
2021/01/19 11:22:01;;;;;;;;;;;;;;;;;;5021377;28;20391;-84
2021/01/19 11:24:28;;;;;;;;;;;;;;;;;;5023392;28;20394;-85
2021/01/19 11:26:55;;;;;;;;;;;;;;;;;;5023857;28;20414;-84
2021/01/19 11:29:21;;;;;;;;;;;;;;;;;;5023518;28;20386;-85
2021/01/19 11:31:48;;;;;;;;;;;;;;;;;;5022428;28;20952;-85
2021/01/19 11:34:17;;;;;;;;;;;;;;;;;;5023143;28;20393;-85
2021/01/19 11:36:43;;;;;;;;;;;;;;;;;;5024130;28;20437;-85
2021/01/19 11:39:09;;;;;;;;;;;;;;;;;;5023837;28;20394;-85
2021/01/19 11:41:36;;;;;;;;;;;;;;;;;;5025382;28;20385;-85
2021/01/19 11:44:05;;;;;;;;;;;;;;;;;;5034373;28;20377;-85
2021/01/19 11:46:32;;;;;;;;;;;;;;;;;;5040144;28;20425;-82
2021/01/19 11:48:59;;;;;;;;;;;;;;;;;;5036851;28;20406;-84
2021/01/19 11:51:25;;;;;;;;;;;;;;;;;;5021824;28;20412;-84
2021/01/19 11:53:51;;;;;;;;;;;;;;;;;;5021233;28;20444;-85
2021/01/19 11:56:18;;;;;;;;;;;;;;;;;;5021803;28;20840;-84
2021/01/19 11:58:44;;;;;;;;;;;;;;;;;;5022211;28;20440;-84
2021/01/19 12:01:11;;;;;;;;;;;;;;;;;;5021212;28;20390;-85
2021/01/19 12:03:37;;;;;;;;;;;;;;;;;;5023075;28;20386;-85
2021/01/19 12:06:06;;;;;;;;;;;;;;;;;;5024628;28;20410;-86
2021/01/19 12:08:33;;;;;;;;;;;;;;;;;;5024681;28;20390;-86
2021/01/19 12:11:00;;;;;;;;;;;;;;;;;;5022590;28;20401;-85
2021/01/19 12:13:26;;;;;;;;;;;;;;;;;;5024656;28;20459;-84
2021/01/19 12:15:53;;;;;;;;;;;;;;;;;;5023418;28;20410;-85
2021/01/19 12:18:19;;;;;;;;;;;;;;;;;;5023724;28;20398;-85
2021/01/19 12:20:46;;;;;;;;;;;;;;;;;;5022640;28;20390;-85
2021/01/19 12:23:13;;;;;;;;;;;;;;;;;;5025938;28;20390;-86
2021/01/19 12:25:39;;;;;;;;;;;;;;;;;;5029177;28;20433;-83
2021/01/19 12:28:05;;;;;;;;;;;;;;;;;;5033844;28;20469;-86
2021/01/19 12:30:32;;;;;;;;;;;;;;;;;;5031126;28;20418;-87
2021/01/19 12:32:58;;;;;;;;;;;;;;;;;;5027633;28;20403;-84
2021/01/19 12:35:25;;;;;;;;;;;;;;;;;;5023694;28;20405;-85
2021/01/19 12:37:51;;;;;;;;;;;;;;;;;;5024211;28;20428;-87
2021/01/19 12:40:18;;;;;;;;;;;;;;;;;;5024495;28;20476;-85
2021/01/19 12:42:46;;;;;;;;;;;;;;;;;;5026239;28;20390;-85
2021/01/19 12:45:13;;;;;;;;;;;;;;;;;;5024188;28;20413;-85
2021/01/19 12:47:39;;;;;;;;;;;;;;;;;;5026030;28;20409;-85
2021/01/19 12:50:05;;;;;;;;;;;;;;;;;;5027034;28;20442;-82
2021/01/19 12:52:32;;;;;;;;;;;;;;;;;;5031973;28;20381;-87
2021/01/19 12:54:58;;;;;;;;;;;;;;;;;;5034150;28;20386;-84
2021/01/19 12:57:25;;;;;;;;;;;;;;;;;;5029586;28;20428;-85
2021/01/19 12:59:51;;;;;;;;;;;;;;;;;;5038988;28;20386;-81
2021/01/19 13:02:18;;;;;;;;;;;;;;;;;;5043612;28;20390;-84
2021/01/19 13:04:44;;;;;;;;;;;;;;;;;;5043129;28;20375;-86
2021/01/19 13:07:13;;;;;;;;;;;;;;;;;;5040895;28;20398;-86
2021/01/19 13:09:40;;;;;;;;;;;;;;;;;;5035778;28;20386;-84
2021/01/19 13:12:06;;;;;;;;;;;;;;;;;;5032884;28;20394;-86
2021/01/19 13:14:33;;;;;;;;;;;;;;;;;;5026307;28;20386;-86
2021/01/19 13:17:01;;;;;;;;;;;;;;;;;;5026420;28;20414;-86
2021/01/19 13:19:28;;;;;;;;;;;;;;;;;;5028026;28;20394;-87
2021/01/19 13:21:54;;;;;;;;;;;;;;;;;;5043754;28;20375;-84
2021/01/19 13:24:21;;;;;;;;;;;;;;;;;;5045641;28;20392;-86
2021/01/19 13:26:47;;;;;;;;;;;;;;;;;;5010886;28;20412;-84
2021/01/19 13:29:14;;;;;;;;;;;;;;;;;;5012453;28;20389;-85
2021/01/19 13:31:40;;;;;;;;;;;;;;;;;;5013468;28;20409;-85
2021/01/19 13:34:07;;;;;;;;;;;;;;;;;;5008379;28;20411;-84
2021/01/19 13:36:33;;;;;;;;;;;;;;;;;;5006620;28;20428;-87
2021/01/19 13:39:00;;;;;;;;;;;;;;;;;;5006662;28;20424;-86
2021/01/19 13:41:26;;;;;;;;;;;;;;;;;;5026581;28;20382;-86
2021/01/19 13:43:55;;;;;;;;;;;;;;;;;;5034803;28;20405;-86
2021/01/19 13:46:22;;;;;;;;;;;;;;;;;;5043359;28;20414;-85
2021/01/19 13:48:48;;;;;;;;;;;;;;;;;;5039707;28;20386;-85
2021/01/19 13:51:15;;;;;;;;;;;;;;;;;;5043066;28;20403;-84
2021/01/19 13:53:41;;;;;;;;;;;;;;;;;;5056739;28;20383;-82
2021/01/19 13:56:08;;;;;;;;;;;;;;;;;;5042246;28;20409;-83
2021/01/19 13:58:34;;;;;;;;;;;;;;;;;;5044503;28;20393;-85
2021/01/19 14:01:01;;;;;;;;;;;;;;;;;;5029140;28;20429;-86
2021/01/19 14:03:27;;;;;;;;;;;;;;;;;;5048254;28;20382;-85
2021/01/19 14:05:54;;;;;;;;;;;;;;;;;;5029240;28;20798;-85
2021/01/19 14:08:20;;;;;;;;;;;;;;;;;;5024943;28;20393;-85
2021/01/19 14:10:47;;;;;;;;;;;;;;;;;;5035614;28;20413;-87
2021/01/19 14:13:14;;;;;;;;;;;;;;;;;;5027780;28;20407;-87
2021/01/19 14:15:40;;;;;;;;;;;;;;;;;;5027177;28;20417;-84
2021/01/19 14:18:07;;;;;;;;;;;;;;;;;;5041733;28;20379;-85
2021/01/19 14:20:33;;;;;;;;;;;;;;;;;;5028282;28;20386;-85
2021/01/19 14:23:00;;;;;;;;;;;;;;;;;;5038881;28;20419;-88
2021/01/19 14:25:26;;;;;;;;;;;;;;;;;;5035278;28;20390;-87
2021/01/19 14:27:53;;;;;;;;;;;;;;;;;;5032569;28;20412;-86
2021/01/19 14:30:19;;;;;;;;;;;;;;;;;;5041394;28;20418;-85
2021/01/19 14:32:45;;;;;;;;;;;;;;;;;;5046288;28;20751;-86
2021/01/19 14:35:12;;;;;;;;;;;;;;;;;;5044257;28;20730;-88
2021/01/19 14:37:38;;;;;;;;;;;;;;;;;;5030241;28;20389;-87
2021/01/19 14:40:05;;;;;;;;;;;;;;;;;;5030438;28;20393;-90
2021/01/19 14:42:31;;;;;;;;;;;;;;;;;;5044896;28;20408;-88
2021/01/19 14:44:58;;;;;;;;;;;;;;;;;;5043694;28;20411;-88
2021/01/19 14:47:24;;;;;;;;;;;;;;;;;;5033287;28;20409;-88
2021/01/19 14:49:50;;;;;;;;;;;;;;;;;;5033592;28;20404;-86
2021/01/19 14:52:18;;;;;;;;;;;;;;;;;;5030626;28;20385;-85
2021/01/19 14:54:44;;;;;;;;;;;;;;;;;;5024600;28;20390;-88
2021/01/19 14:57:11;;;;;;;;;;;;;;;;;;5022991;28;20449;-87
2021/01/19 14:59:37;;;;;;;;;;;;;;;;;;5022397;28;20398;-86
2021/01/19 15:02:03;;;;;;;;;;;;;;;;;;5008358;28;20399;-85
2021/01/19 15:04:30;;;;;;;;;;;;;;;;;;5008965;28;20854;-85
2021/01/19 15:06:56;;;;;;;;;;;;;;;;;;5020878;28;20418;-85
2021/01/19 15:09:23;;;;;;;;;;;;;;;;;;5029682;28;20391;-84
2021/01/19 15:11:49;;;;;;;;;;;;;;;;;;5042208;28;20403;-85
2021/01/19 15:14:15;;;;;;;;;;;;;;;;;;5024079;28;20452;-87
2021/01/19 15:16:42;;;;;;;;;;;;;;;;;;5022401;28;20472;-85
2021/01/19 15:19:08;;;;;;;;;;;;;;;;;;5027630;28;20390;-85
2021/01/19 15:21:35;;;;;;;;;;;;;;;;;;5029790;28;20383;-85
2021/01/19 15:24:02;;;;;;;;;;;;;;;;;;5047669;28;20437;-82
2021/01/19 15:26:28;;;;;;;;;;;;;;;;;;5059165;28;20395;-82
2021/01/19 15:28:57;;;;;;;;;;;;;;;;;;5059835;28;20388;-83
2021/01/19 15:31:23;;;;;;;;;;;;;;;;;;5050723;28;20407;-84
2021/01/19 15:33:49;;;;;;;;;;;;;;;;;;5048006;28;20416;-85
2021/01/19 15:36:16;;;;;;;;;;;;;;;;;;5026330;28;20413;-86
2021/01/19 15:38:42;;;;;;;;;;;;;;;;;;5044171;28;20418;-85
2021/01/19 15:41:09;;;;;;;;;;;;;;;;;;5046319;28;20387;-85
2021/01/19 15:43:35;;;;;;;;;;;;;;;;;;5021594;28;20390;-86
2021/01/19 15:46:01;;;;;;;;;;;;;;;;;;5028587;28;20404;-88
2021/01/19 15:48:36;;;;;;;;;;;;;;;;;;5038603;28;20394;-85
2021/01/19 15:51:02;;;;;;;;;;;;;;;;;;5037526;28;20401;-86
2021/01/19 15:53:28;;;;;;;;;;;;;;;;;;5020661;28;20395;-87
2021/01/19 15:55:56;;;;;;;;;;;;;;;;;;5019810;28;21426;-86
2021/01/19 15:58:22;;;;;;;;;;;;;;;;;;5036173;28;20786;-87
2021/01/19 16:00:49;;;;;;;;;;;;;;;;;;5040942;28;20388;-87
2021/01/19 16:03:15;;;;;;;;;;;;;;;;;;5035444;28;20383;-86
2021/01/19 16:05:42;;;;;;;;;;;;;;;;;;5040484;28;20406;-83
2021/01/19 16:08:08;;;;;;;;;;;;;;;;;;5024379;28;20817;-85
2021/01/19 16:10:35;;;;;;;;;;;;;;;;;;5018486;28;20417;-86
2021/01/19 16:13:01;;;;;;;;;;;;;;;;;;5019257;28;20390;-86
2021/01/19 16:15:28;;;;;;;;;;;;;;;;;;5019143;28;20429;-86
2021/01/19 16:17:55;;;;;;;;;;;;;;;;;;5020161;28;20394;-85
2021/01/19 16:20:21;;;;;;;;;;;;;;;;;;5021121;28;20390;-85
2021/01/19 16:22:48;;;;;;;;;;;;;;;;;;5007599;28;20393;-85
2021/01/19 16:25:14;;;;;;;;;;;;;;;;;;5037028;28;20865;-85
2021/01/19 16:27:40;;;;;;;;;;;;;;;;;;5036066;28;20412;-85
2021/01/19 16:30:07;;;;;;;;;;;;;;;;;;5018553;28;20770;-85
2021/01/19 16:32:33;;;;;;;;;;;;;;;;;;5019137;28;20382;-85
2021/01/19 16:35:00;;;;;;;;;;;;;;;;;;5021858;28;20770;-83
2021/01/19 16:37:26;;;;;;;;;;;;;;;;;;5017355;28;20402;-82
2021/01/19 16:39:54;;;;;;;;;;;;;;;;;;5018368;28;20485;-84
2021/01/19 16:42:20;;;;;;;;;;;;;;;;;;5017527;28;20389;-83
2021/01/19 16:44:47;;;;;;;;;;;;;;;;;;5018443;28;20397;-85
2021/01/19 16:47:13;;;;;;;;;;;;;;;;;;5017265;28;20418;-83
2021/01/19 16:49:39;;;;;;;;;;;;;;;;;;5018336;28;20398;-83
2021/01/19 16:52:14;;;;;;;;;;;;;;;;;;5017492;28;20421;-84
2021/01/19 16:54:40;;;;;;;;;;;;;;;;;;5018005;28;20420;-84
2021/01/19 16:57:07;;;;;;;;;;;;;;;;;;5017332;28;20786;-84
2021/01/19 16:59:33;;;;;;;;;;;;;;;;;;5017826;28;20402;-84
2021/01/19 17:02:00;;;;;;;;;;;;;;;;;;5017182;28;20425;-83
2021/01/19 17:04:26;;;;;;;;;;;;;;;;;;5018097;28;20838;-83
2021/01/19 17:06:52;;;;;;;;;;;;;;;;;;5017622;28;20410;-83
2021/01/19 17:09:19;;;;;;;;;;;;;;;;;;5019957;28;20402;-85
2021/01/19 17:11:45;;;;;;;;;;;;;;;;;;5036438;28;20449;-84
2021/01/19 17:14:12;;;;;;;;;;;;;;;;;;5039075;28;20400;-85
2021/01/19 17:16:38;;;;;;;;;;;;;;;;;;5041132;28;20407;-83
2021/01/19 17:19:08;;;;;;;;;;;;;;;;;;5041787;28;20914;-82
2021/01/19 17:21:34;;;;;;;;;;;;;;;;;;5018919;28;20382;-82
2021/01/19 17:24:01;;;;;;;;;;;;;;;;;;5016822;28;20389;-81
2021/01/19 17:26:27;;;;;;;;;;;;;;;;;;5030177;28;20403;-87